CST,Max TemperatureF,Mean TemperatureF,Min TemperatureF,Max Dew PointF,MeanDew PointF,Min DewpointF,Max Humidity, Mean Humidity, Min Humidity, Max Sea Level PressureIn, Mean Sea Level PressureIn, Min Sea Level PressureIn, Max VisibilityMiles, Mean VisibilityMiles, Min VisibilityMiles, Max Wind SpeedMPH, Mean Wind SpeedMPH, Max Gust SpeedMPH,PrecipitationIn, CloudCover, Events, WindDirDegrees
2013-2-1,12,0,-12,6,-5,-18,80,70,59,30.41,30.22,30.05,10,8,2,20,10,25,T,5,Snow,204
2013-2-2,24,14,4,18,7,-2,88,76,64,30.22,30.07,29.93,10,7,1,29,10,33,0.01,7,Snow,239
2013-2-3,23,16,8,16,9,1,84,76,67,30.15,30.04,29.86,10,7,2,32,13,43,T,7,Snow,300
2013-2-4,21,17,12,15,10,7,84,70,56,30.07,29.96,29.82,10,8,2,20,9,23,T,5,Snow,39
2013-2-5,35,23,11,27,20,8,88,79,70,30.15,29.87,29.74,10,7,2,28,14,33,T,5,Snow,277
2013-2-6,37,22,7,31,20,5,89,79,69,30.15,30.04,29.92,10,8,6,24,8,30,0.01,6,Rain,160
2013-2-7,34,28,22,31,25,19,100,91,81,30.24,30.04,29.91,9,3,0,22,12,24,T,7,Fog,349
2013-2-8,28,25,21,21,20,18,88,79,69,30.39,30.31,30.20,10,10,9,20,9,24,0.00,8,,101
2013-2-9,31,29,26,27,24,21,92,87,81,30.27,30.09,29.91,10,7,4,26,18,32,0.00,8,,156
2013-2-10,38,34,29,37,31,25,100,93,85,29.89,29.46,29.25,10,4,0,31,16,37,0.37,8,Fog-Rain-Snow,158
2013-2-11,29,25,21,25,19,14,85,77,68,30.12,29.77,29.41,10,5,1,36,26,44,0.01,8,Snow,293
2013-2-12,37,27,17,27,20,14,85,75,64,30.14,30.00,29.86,10,10,7,10,9,12,0.00,2,,241
2013-2-13,43,32,20,33,26,18,92,79,65,29.86,29.74,29.62,10,10,9,17,9,23,T,4,Rain,253
2013-2-14,35,27,18,30,24,10,85,74,62,30.20,29.89,29.62,10,8,1,28,18,35,T,6,Snow,308
2013-2-15,23,17,11,10,7,3,76,66,56,30.35,30.31,30.22,10,10,10,24,15,28,0.00,1,,316
2013-2-16,26,19,11,16,11,6,84,71,57,30.31,30.19,30.11,10,8,2,17,6,21,T,5,Snow,274
2013-2-17,36,26,16,24,18,10,88,74,59,30.13,29.94,29.67,10,10,9,29,16,36,0.00,0,,146
2013-2-18,37,22,6,29,16,-2,88,78,67,29.89,29.69,29.56,10,7,2,37,20,47,T,6,Snow,296
2013-2-19,12,5,-3,-2,-6,-10,76,65,53,30.42,30.11,29.87,10,8,2,36,24,46,T,4,Snow,311
2013-2-20,22,9,-5,8,-1,-11,76,61,45,30.49,30.43,30.34,10,10,10,16,8,20,0.00,0,,23
2013-2-21,24,17,9,16,10,3,80,69,57,30.41,30.17,29.96,10,7,1,24,14,29,0.04,4,Snow,69
2013-2-22,26,20,14,19,17,10,91,80,68,29.96,29.87,29.81,10,4,0,20,11,22,0.07,8,Fog-Snow,5
2013-2-23,22,10,-3,14,7,-4,92,77,62,30.01,29.95,29.89,10,6,0,13,5,15,0.00,3,Fog,265
2013-2-24,27,12,-3,21,8,-8,87,81,74,30.13,30.06,29.94,6,3,0,10,3,10,0.00,6,Fog,123
2013-2-25,34,26,18,27,21,16,92,79,66,30.13,30.07,29.99,4,3,0,9,4,10,T,5,Fog,41
2013-2-26,33,26,19,25,22,19,92,81,69,29.99,29.86,29.78,9,6,2,25,14,32,0.00,2,,14
2013-2-27,33,28,23,25,22,18,88,79,69,30.00,29.86,29.79,10,9,2,25,17,31,T,8,Snow,340
2013-2-28,30,25,20,23,20,16,88,79,69,30.19,30.12,29.97,10,9,2,18,13,22,T,7,Snow,347